Terminal Aerodrome Forecast
Issued by NWS

Home | Current Version | Previous Version | Graphics & Text | Print | Product List | Glossary On
Versions: 1 2 3 4 5 6 7 8 9 10 11 12 13 14 15 16
000
FTUS43 KIWX 230900 AAA
TAFSBN
TAF AMD
KSBN 230924Z 2309/2406 00000KT 4SM BR SKC
      TEMPO 2309/2313 3/4SM BR SCT002
     FM231400 20006KT P6SM SCT025
     FM232300 18004KT P6SM BKN250=

USA.gov is the U.S. government's official web portal to all federal, state and local government web resources and services.